Time;durP1;ratioP1;P1;durP2;ratioP2;P2;SDS_P1;SDS_P2;PMS_P1;PMS_P2;Temp;Humidity;BMP_temperature;BMP_pressure;BME280_temperature;BME280_humidity;BME280_pressure;Samples;Min_cycle;Max_cycle;Signal;HPM_P1;HPM_P2
2021/09/26 00:01:53;;;;;;;76.82;32.38;;;;;;;10.75;83.91;95095.48;1697186;83;21096;-56
2021/09/26 00:04:20;;;;;;;75.00;38.42;;;;;;;10.71;84.09;95094.83;1690654;83;21028;-56
2021/09/26 00:06:46;;;;;;;89.15;39.18;;;;;;;10.65;84.29;95094.43;1686220;84;21111;-58
2021/09/26 00:09:13;;;;;;;88.05;40.40;;;;;;;10.60;84.53;95085.35;1690138;83;21091;-58
2021/09/26 00:11:40;;;;;;;79.82;40.48;;;;;;;10.61;84.73;95086.30;1697344;83;20956;-58
2021/09/26 00:14:08;;;;;;;72.70;37.15;;;;;;;10.64;84.71;95088.17;1687489;84;21083;-57
2021/09/26 00:16:35;;;;;;;68.55;35.23;;;;;;;10.67;84.57;95092.80;1683908;83;21024;-58
2021/09/26 00:19:02;;;;;;;66.30;33.13;;;;;;;10.68;84.49;95092.95;1700187;83;20969;-64
2021/09/26 00:21:29;;;;;;;55.85;33.00;;;;;;;10.71;84.37;95085.81;1698905;83;20973;-57
2021/09/26 00:23:56;;;;;;;66.17;35.33;;;;;;;10.74;84.38;95090.60;1698678;83;21083;-55
2021/09/26 00:26:23;;;;;;;61.02;33.48;;;;;;;10.74;84.33;95085.09;1685516;84;21087;-57
2021/09/26 00:28:50;;;;;;;61.88;32.50;;;;;;;10.74;84.42;95078.81;1687533;83;20960;-57
2021/09/26 00:31:17;;;;;;;61.05;30.97;;;;;;;10.79;84.42;95084.55;1698836;83;20993;-57
2021/09/26 00:33:43;;;;;;;62.33;30.95;;;;;;;10.87;84.33;95074.08;1685207;83;21055;-57
2021/09/26 00:36:10;;;;;;;53.38;31.65;;;;;;;10.86;83.96;95077.45;1697309;83;21028;-56
2021/09/26 00:38:37;;;;;;;55.92;30.50;;;;;;;10.88;83.85;95075.03;1683625;84;21179;-56
2021/09/26 00:41:03;;;;;;;60.58;34.08;;;;;;;10.90;83.67;95079.48;1698781;84;21095;-56
2021/09/26 00:43:30;;;;;;;63.70;33.10;;;;;;;10.91;83.60;95076.12;1679581;84;21435;-57
2021/09/26 00:45:57;;;;;;;66.30;34.30;;;;;;;10.90;83.58;95080.86;1690622;83;20993;-57
2021/09/26 00:48:24;;;;;;;61.58;32.53;;;;;;;10.94;83.76;95081.52;1693766;83;21060;-56
2021/09/26 00:50:51;;;;;;;60.58;33.92;;;;;;;10.97;83.62;95077.87;1701729;83;21100;-57
2021/09/26 00:53:20;;;;;;;71.60;31.52;;;;;;;10.90;83.71;95075.36;1698110;84;21031;-57
2021/09/26 00:55:47;;;;;;;56.13;31.80;;;;;;;10.88;83.96;95071.50;1687497;83;21005;-57
2021/09/26 00:58:14;;;;;;;63.70;34.20;;;;;;;10.86;83.90;95065.08;1689006;84;21095;-57
2021/09/26 01:00:41;;;;;;;62.95;33.40;;;;;;;10.83;84.05;95068.68;1697051;83;20968;-57
2021/09/26 01:03:08;;;;;;;62.78;34.78;;;;;;;10.85;83.98;95081.42;1687454;83;21192;-57
2021/09/26 01:05:35;;;;;;;62.33;35.92;;;;;;;10.86;84.20;95067.83;1701437;84;21558;-58
2021/09/26 01:08:21;;;;;;;65.42;35.33;;;;;;;10.90;84.28;95067.10;1696285;84;21445;-58
2021/09/26 01:11:02;;;;;;;64.77;34.33;;;;;;;10.95;84.25;95072.05;1699218;84;20969;-58
2021/09/26 01:13:40;;;;;;;64.53;34.35;;;;;;;10.99;83.98;95073.32;1693364;83;21107;-57
2021/09/26 01:16:36;;;;;;;61.10;34.33;;;;;;;10.98;84.01;95077.29;1672227;84;21182;-56
2021/09/26 01:19:46;;;;;;;73.30;39.30;;;;;;;11.00;84.11;95070.11;1678448;83;21008;-56
2021/09/26 01:22:17;;;;;;;66.05;34.67;;;;;;;11.06;84.24;95082.12;1684054;83;20985;-56
2021/09/26 01:25:27;;;;;;;64.60;34.20;;;;;;;11.04;84.07;95085.94;1692485;84;21061;-56
2021/09/26 01:28:28;;;;;;;76.20;35.23;;;;;;;10.97;84.02;95073.75;1696117;83;21559;-56
2021/09/26 01:30:58;;;;;;;56.77;32.95;;;;;;;10.91;84.26;95075.52;1694198;83;21170;-57
2021/09/26 01:33:31;;;;;;;65.15;36.48;;;;;;;10.91;84.48;95083.78;1684426;84;21136;-56
2021/09/26 01:36:05;;;;;;;58.48;33.90;;;;;;;10.90;84.53;95080.86;1696154;84;21472;-57
2021/09/26 01:39:09;;;;;;;78.37;38.98;;;;;;;10.87;84.62;95081.75;1700637;83;21084;-56
2021/09/26 01:41:59;;;;;;;74.97;35.68;;;;;;;10.90;84.69;95081.45;1695172;83;21060;-56
2021/09/26 01:44:35;;;;;;;73.57;36.83;;;;;;;10.89;84.63;95083.45;1697720;83;21552;-57
2021/09/26 01:47:03;;;;;;;76.65;38.35;;;;;;;10.92;84.78;95081.19;1691113;83;21445;-57
2021/09/26 01:49:35;;;;;;;72.90;37.60;;;;;;;11.02;84.91;95080.07;1703904;84;21417;-57
2021/09/26 01:52:02;;;;;;;70.03;36.58;;;;;;;11.10;84.69;95077.27;1686027;83;20989;-57
2021/09/26 01:54:29;;;;;;;70.47;35.30;;;;;;;11.17;84.65;95079.79;1679767;84;38022;-57
2021/09/26 01:56:56;;;;;;;69.60;34.40;;;;;;;11.24;84.52;95078.20;1696495;83;21088;-57
2021/09/26 01:59:22;;;;;;;61.28;33.30;;;;;;;11.31;84.32;95075.83;1686688;84;21935;-58
2021/09/26 02:01:49;;;;;;;65.17;32.90;;;;;;;11.33;84.00;95074.15;1683664;83;21080;-58
2021/09/26 02:04:18;;;;;;;65.05;35.35;;;;;;;11.32;83.78;95082.25;1691718;83;21068;-57
2021/09/26 02:06:45;;;;;;;56.83;32.75;;;;;;;11.31;83.74;95085.47;1698739;83;20957;-58
2021/09/26 02:09:14;;;;;;;53.28;31.23;;;;;;;11.33;83.91;95078.91;1699713;83;21222;-57
2021/09/26 02:11:40;;;;;;;64.27;33.20;;;;;;;11.36;83.95;95071.88;1678789;84;20961;-57
2021/09/26 02:14:07;;;;;;;59.40;30.35;;;;;;;11.40;83.99;95065.67;1696677;83;21024;-57
2021/09/26 02:16:35;;;;;;;54.13;32.93;;;;;;;11.40;83.69;95069.80;1696118;83;21120;-57
2021/09/26 02:19:03;;;;;;;60.15;32.25;;;;;;;11.39;83.82;95063.34;1697179;83;20976;-57
2021/09/26 02:21:31;;;;;;;48.92;28.90;;;;;;;11.41;84.22;95066.42;1693756;83;21139;-57
2021/09/26 02:23:58;;;;;;;45.28;26.33;;;;;;;11.46;84.22;95066.64;1683232;83;21017;-58
2021/09/26 02:26:25;;;;;;;50.35;27.02;;;;;;;11.52;84.01;95074.49;1692697;83;21075;-57
2021/09/26 02:28:53;;;;;;;50.45;28.75;;;;;;;11.50;83.80;95078.92;1694332;83;20973;-57
2021/09/26 02:31:19;;;;;;;58.45;28.25;;;;;;;11.45;84.08;95077.50;1700478;83;21500;-57
2021/09/26 02:33:46;;;;;;;79.58;37.33;;;;;;;11.40;84.31;95073.93;1696937;83;21184;-57
2021/09/26 02:36:13;;;;;;;61.33;34.05;;;;;;;11.36;84.55;95080.14;1695800;83;21011;-57
2021/09/26 02:38:41;;;;;;;60.48;31.85;;;;;;;11.34;84.75;95074.31;1692159;83;21500;-58
2021/09/26 02:41:24;;;;;;;64.20;31.33;;;;;;;11.33;84.77;95075.53;1707103;83;21052;-58
2021/09/26 02:44:14;;;;;;;58.08;31.85;;;;;;;11.32;84.59;95072.61;1691412;83;21217;-57
2021/09/26 02:46:45;;;;;;;61.68;33.10;;;;;;;11.30;84.87;95081.14;1697403;83;21429;-57
2021/09/26 02:49:11;;;;;;;51.55;30.55;;;;;;;11.31;84.97;95080.71;1674371;84;21041;-57
2021/09/26 02:51:39;;;;;;;51.20;30.70;;;;;;;11.34;85.05;95080.44;1698434;83;20973;-57
2021/09/26 02:54:07;;;;;;;51.98;28.75;;;;;;;11.33;84.90;95084.41;1695849;84;21500;-57
2021/09/26 02:56:34;;;;;;;48.95;26.95;;;;;;;11.32;85.12;95075.36;1699879;84;21036;-58
2021/09/26 02:59:02;;;;;;;41.45;24.63;;;;;;;11.34;85.24;95085.33;1693567;83;21800;-55
2021/09/26 03:01:29;;;;;;;48.25;26.50;;;;;;;11.42;85.48;95082.52;1675458;83;20968;-58
2021/09/26 03:04:03;;;;;;;40.98;24.60;;;;;;;11.51;85.40;95079.09;1686618;83;21012;-56
2021/09/26 03:06:30;;;;;;;53.30;28.20;;;;;;;11.58;85.08;95077.48;1687635;84;20984;-58
2021/09/26 03:08:57;;;;;;;46.73;24.87;;;;;;;11.59;84.98;95087.30;1692768;83;20973;-57
2021/09/26 03:11:24;;;;;;;39.63;23.75;;;;;;;11.59;84.80;95079.81;1691427;84;21111;-57
2021/09/26 03:13:51;;;;;;;42.98;26.15;;;;;;;11.59;85.01;95077.05;1698370;83;20973;-58
2021/09/26 03:16:18;;;;;;;51.45;26.02;;;;;;;11.66;85.13;95078.77;1691591;83;20976;-57
2021/09/26 03:18:44;;;;;;;41.28;23.90;;;;;;;11.72;84.96;95080.52;1702567;83;21020;-57
2021/09/26 03:21:12;;;;;;;44.98;23.45;;;;;;;11.75;84.78;95081.00;1692186;83;20965;-57
2021/09/26 03:23:39;;;;;;;42.60;21.50;;;;;;;11.78;84.58;95081.52;1674514;84;21133;-57
2021/09/26 03:26:05;;;;;;;38.63;21.80;;;;;;;11.80;84.44;95083.81;1701599;83;21611;-57
2021/09/26 03:28:34;;;;;;;33.80;21.00;;;;;;;11.81;84.34;95087.51;1696418;83;21150;-58
2021/09/26 03:31:01;;;;;;;47.90;27.17;;;;;;;11.82;84.39;95088.27;1697770;83;21230;-59
2021/09/26 03:33:27;;;;;;;43.83;24.85;;;;;;;11.82;84.33;95091.80;1692246;83;21226;-56
2021/09/26 03:35:54;;;;;;;53.78;25.72;;;;;;;11.79;84.31;95092.70;1691739;83;21776;-57
2021/09/26 03:38:21;;;;;;;45.80;25.50;;;;;;;11.78;84.49;95091.16;1692635;83;20965;-56
2021/09/26 03:40:47;;;;;;;50.43;25.92;;;;;;;11.81;84.53;95094.99;1694858;83;21009;-58
2021/09/26 03:43:14;;;;;;;47.98;24.52;;;;;;;11.82;84.36;95100.67;1696163;83;21091;-58
2021/09/26 03:45:41;;;;;;;47.45;23.87;;;;;;;11.77;84.42;95095.14;1691492;83;20977;-56
2021/09/26 03:48:08;;;;;;;49.10;25.50;;;;;;;11.73;84.62;95095.84;1695317;83;21113;-55
2021/09/26 03:50:34;;;;;;;43.48;24.07;;;;;;;11.68;84.90;95090.15;1694023;83;21028;-57
2021/09/26 03:53:02;;;;;;;40.92;23.15;;;;;;;11.68;85.03;95101.93;1690964;83;21456;-57
2021/09/26 03:55:28;;;;;;;43.45;23.25;;;;;;;11.68;85.30;95089.52;1686146;84;21059;-57
2021/09/26 03:57:55;;;;;;;37.45;20.40;;;;;;;11.74;85.45;95093.25;1685062;83;21032;-57
2021/09/26 04:00:22;;;;;;;27.75;16.48;;;;;;;11.82;85.39;95100.67;1693825;84;21140;-57
2021/09/26 04:02:49;;;;;;;49.27;24.27;;;;;;;11.83;85.30;95097.48;1690330;83;21434;-57
2021/09/26 04:05:16;;;;;;;62.00;26.20;;;;;;;11.81;85.38;95099.13;1696301;83;21076;-57
2021/09/26 04:07:43;;;;;;;52.60;27.62;;;;;;;11.81;85.44;95098.53;1686866;83;20973;-56
2021/09/26 04:10:11;;;;;;;57.20;25.30;;;;;;;11.77;85.44;95099.27;1684898;83;21048;-57
2021/09/26 04:12:40;;;;;;;52.85;23.77;;;;;;;11.80;85.61;95101.72;1693355;83;21124;-57
2021/09/26 04:15:09;;;;;;;53.40;26.30;;;;;;;11.82;85.42;95095.94;1694073;83;21012;-57
2021/09/26 04:17:35;;;;;;;47.93;25.27;;;;;;;11.85;85.39;95100.55;1687235;83;21503;-58
2021/09/26 04:20:04;;;;;;;55.80;27.98;;;;;;;11.84;85.25;95104.53;1699072;84;20969;-57
2021/09/26 04:22:31;;;;;;;45.52;23.45;;;;;;;11.80;85.28;95105.27;1685550;83;21500;-58
2021/09/26 04:24:58;;;;;;;44.40;21.17;;;;;;;11.78;85.52;95104.95;1694405;84;21174;-57
2021/09/26 04:27:24;;;;;;;38.42;20.23;;;;;;;11.83;85.65;95107.13;1694068;83;20969;-57
2021/09/26 04:29:52;;;;;;;42.00;22.17;;;;;;;11.87;85.65;95100.87;1684447;84;20997;-58
2021/09/26 04:32:21;;;;;;;45.95;20.35;;;;;;;11.91;85.73;95107.03;1683706;83;21000;-56
2021/09/26 04:34:48;;;;;;;34.95;20.57;;;;;;;11.97;85.85;95106.64;1693218;83;21073;-57
2021/09/26 04:37:14;;;;;;;39.15;19.60;;;;;;;12.06;85.68;95113.59;1698613;83;21220;-57
2021/09/26 04:39:41;;;;;;;35.63;18.37;;;;;;;12.13;85.25;95116.13;1687452;83;21067;-57
2021/09/26 04:42:08;;;;;;;53.70;23.55;;;;;;;12.17;85.05;95120.11;1701046;83;21013;-57
2021/09/26 04:44:35;;;;;;;48.68;25.62;;;;;;;12.14;84.85;95123.17;1698980;84;21020;-57
2021/09/26 04:47:02;;;;;;;41.98;23.50;;;;;;;12.12;84.91;95117.94;1689964;83;21238;-57
2021/09/26 04:49:28;;;;;;;50.70;24.23;;;;;;;12.11;85.07;95124.05;1698621;83;21835;-57
2021/09/26 04:51:59;;;;;;;43.78;24.43;;;;;;;12.11;84.74;95128.19;1704660;83;21052;-58
2021/09/26 04:54:26;;;;;;;40.95;22.40;;;;;;;12.05;84.75;95132.73;1699721;83;21513;-56
2021/09/26 04:56:53;;;;;;;41.95;25.27;;;;;;;12.02;84.79;95125.96;1684625;83;21095;-57
2021/09/26 04:59:21;;;;;;;51.92;26.15;;;;;;;11.97;85.07;95125.94;1696962;83;21006;-57
2021/09/26 05:01:48;;;;;;;51.73;24.25;;;;;;;11.97;85.21;95126.54;1693335;83;21156;-57
2021/09/26 05:04:15;;;;;;;41.30;21.90;;;;;;;11.95;85.47;95126.22;1696018;83;21123;-57
2021/09/26 05:06:42;;;;;;;49.45;23.57;;;;;;;11.97;85.49;95124.56;1694649;83;21429;-57
2021/09/26 05:09:09;;;;;;;39.67;20.92;;;;;;;12.03;85.63;95128.28;1694952;84;21029;-57
2021/09/26 05:11:35;;;;;;;50.58;22.52;;;;;;;12.09;85.79;95134.00;1695675;83;21032;-57
2021/09/26 05:14:02;;;;;;;47.60;22.55;;;;;;;12.15;85.64;95132.20;1698914;83;21760;-57
2021/09/26 05:16:29;;;;;;;52.90;24.27;;;;;;;12.18;85.58;95130.71;1686386;83;20961;-57
2021/09/26 05:18:56;;;;;;;44.65;17.07;;;;;;;12.18;85.49;95129.33;1689957;83;20972;-58
2021/09/26 05:21:22;;;;;;;47.78;24.43;;;;;;;12.17;85.42;95129.17;1692484;83;21025;-56
2021/09/26 05:23:49;;;;;;;63.60;23.50;;;;;;;12.15;85.36;95126.69;1690747;83;21163;-57
2021/09/26 05:26:16;;;;;;;53.45;24.05;;;;;;;12.15;85.71;95132.99;1693254;83;21854;-57
2021/09/26 05:28:44;;;;;;;53.78;24.60;;;;;;;12.16;85.50;95133.16;1682026;84;21104;-56
2021/09/26 05:31:10;;;;;;;48.45;23.32;;;;;;;12.14;85.60;95134.21;1692290;83;21084;-57
2021/09/26 05:33:37;;;;;;;49.63;21.80;;;;;;;12.13;85.66;95131.30;1689096;84;21533;-57
2021/09/26 05:36:04;;;;;;;50.20;21.40;;;;;;;12.16;85.62;95130.98;1695122;83;21615;-57
2021/09/26 05:38:31;;;;;;;31.37;18.15;;;;;;;12.18;85.77;95132.09;1695770;83;21193;-58
2021/09/26 05:40:58;;;;;;;51.90;23.83;;;;;;;12.21;85.69;95138.69;1702060;84;21107;-59
2021/09/26 05:43:26;;;;;;;36.55;18.52;;;;;;;12.22;85.69;95136.87;1695750;83;21159;-58
2021/09/26 05:45:53;;;;;;;40.25;18.82;;;;;;;12.22;85.84;95139.63;1685435;83;21096;-58
2021/09/26 05:48:20;;;;;;;44.45;21.25;;;;;;;12.27;85.91;95140.42;1686933;84;21139;-57
2021/09/26 05:50:46;;;;;;;57.95;21.35;;;;;;;12.35;86.16;95138.19;1692593;83;21114;-58
2021/09/26 05:53:13;;;;;;;41.68;20.43;;;;;;;12.41;85.77;95141.30;1695975;84;21409;-56
2021/09/26 05:55:40;;;;;;;45.03;21.35;;;;;;;12.45;85.75;95143.32;1683943;83;21064;-57
2021/09/26 05:58:07;;;;;;;34.95;20.50;;;;;;;12.53;85.79;95144.63;1686238;83;21493;-59
2021/09/26 06:00:33;;;;;;;41.28;17.40;;;;;;;12.62;85.57;95141.91;1697795;84;20981;-58
2021/09/26 06:03:00;;;;;;;36.75;18.48;;;;;;;12.73;85.29;95143.67;1694838;83;21119;-57
2021/09/26 06:05:27;;;;;;;34.67;19.57;;;;;;;12.78;85.14;95135.59;1688350;83;21012;-58
2021/09/26 06:07:53;;;;;;;36.10;21.82;;;;;;;12.88;84.76;95135.78;1696547;83;21077;-58
2021/09/26 06:10:21;;;;;;;44.53;27.40;;;;;;;12.90;84.41;95138.10;1686298;83;21731;-57
2021/09/26 06:12:48;;;;;;;40.48;24.82;;;;;;;12.89;84.45;95135.94;1698996;83;21512;-56
2021/09/26 06:15:14;;;;;;;36.88;23.12;;;;;;;12.93;84.40;95131.70;1689323;83;21797;-58
2021/09/26 06:17:41;;;;;;;55.28;31.55;;;;;;;13.02;84.09;95137.25;1691041;83;20973;-57
2021/09/26 06:20:10;;;;;;;60.28;37.70;;;;;;;13.05;83.95;95134.98;1689835;83;21012;-57
2021/09/26 06:22:37;;;;;;;47.60;31.52;;;;;;;13.04;83.84;95139.73;1683692;83;21539;-59
2021/09/26 06:25:05;;;;;;;53.60;31.05;;;;;;;13.02;83.80;95136.66;1687269;83;21089;-57
2021/09/26 06:27:32;;;;;;;41.30;25.10;;;;;;;13.01;83.91;95137.87;1693598;83;21135;-55
2021/09/26 06:29:59;;;;;;;47.78;25.27;;;;;;;13.04;83.88;95141.11;1681860;84;21543;-58
2021/09/26 06:32:26;;;;;;;55.30;26.85;;;;;;;13.11;83.97;95137.31;1693479;83;21520;-58
2021/09/26 06:34:53;;;;;;;44.58;27.10;;;;;;;13.17;83.89;95136.87;1690250;83;21017;-57
2021/09/26 06:37:20;;;;;;;41.75;26.93;;;;;;;13.24;83.93;95140.13;1697621;83;21118;-58
2021/09/26 06:39:46;;;;;;;40.65;25.68;;;;;;;13.36;83.94;95145.39;1694740;84;21140;-58
2021/09/26 06:42:13;;;;;;;46.55;25.32;;;;;;;13.43;83.97;95140.35;1703734;83;21444;-57
2021/09/26 06:44:40;;;;;;;31.55;21.87;;;;;;;13.52;83.82;95143.76;1697876;83;21084;-57
2021/09/26 06:47:07;;;;;;;42.55;23.83;;;;;;;13.62;83.77;95149.48;1687992;83;21308;-58
2021/09/26 06:49:34;;;;;;;25.08;18.60;;;;;;;13.70;83.51;95153.48;1701030;83;21068;-58
2021/09/26 06:52:01;;;;;;;27.15;18.87;;;;;;;13.79;83.32;95153.53;1698375;83;21187;-57
2021/09/26 06:54:28;;;;;;;33.73;19.90;;;;;;;13.85;83.24;95154.45;1702596;83;20964;-58
2021/09/26 06:56:55;;;;;;;32.15;18.00;;;;;;;13.87;83.00;95147.84;1682410;83;21076;-59
2021/09/26 06:59:21;;;;;;;37.95;21.70;;;;;;;13.88;82.83;95148.00;1694125;83;21016;-58
2021/09/26 07:01:48;;;;;;;30.10;18.40;;;;;;;13.95;82.58;95153.22;1692924;83;21229;-58
2021/09/26 07:04:15;;;;;;;25.10;16.57;;;;;;;14.05;82.54;95146.48;1687061;83;21136;-57
2021/09/26 07:06:41;;;;;;;29.00;16.93;;;;;;;14.16;82.30;95146.85;1691484;83;21091;-57
2021/09/26 07:09:08;;;;;;;21.93;16.67;;;;;;;14.25;82.28;95146.84;1685296;83;21068;-59
2021/09/26 07:11:35;;;;;;;22.42;14.85;;;;;;;14.34;82.06;95148.24;1687526;84;21957;-59
2021/09/26 07:14:02;;;;;;;26.77;15.78;;;;;;;14.41;81.84;95150.09;1700612;84;21444;-58
2021/09/26 07:16:30;;;;;;;31.45;18.98;;;;;;;14.51;81.34;95152.39;1700028;83;21158;-58
2021/09/26 07:18:56;;;;;;;21.15;16.37;;;;;;;14.59;81.11;95154.23;1698246;83;21060;-58
2021/09/26 07:21:23;;;;;;;24.77;16.37;;;;;;;14.68;80.92;95152.23;1698117;83;21045;-56
2021/09/26 07:23:51;;;;;;;24.02;16.42;;;;;;;14.76;80.60;95156.80;1691341;83;21188;-57
2021/09/26 07:26:18;;;;;;;30.05;17.32;;;;;;;14.82;80.24;95161.27;1699375;83;20957;-57
2021/09/26 07:28:46;;;;;;;33.67;17.60;;;;;;;14.90;80.05;95162.50;1690566;83;21188;-58
2021/09/26 07:31:14;;;;;;;41.80;19.40;;;;;;;14.97;79.76;95158.02;1682404;83;20957;-57
2021/09/26 07:33:42;;;;;;;20.52;14.83;;;;;;;15.04;79.52;95161.08;1694498;83;20965;-57
2021/09/26 07:36:09;;;;;;;25.77;15.83;;;;;;;15.15;79.06;95160.73;1688672;83;21116;-57
2021/09/26 07:38:36;;;;;;;25.68;15.20;;;;;;;15.25;78.89;95167.02;1695764;83;21017;-57
2021/09/26 07:41:03;;;;;;;18.45;13.53;;;;;;;15.36;78.45;95160.41;1690203;84;21800;-57
2021/09/26 07:43:31;;;;;;;21.82;12.88;;;;;;;15.50;77.85;95166.64;1690132;83;20960;-57
2021/09/26 07:45:57;;;;;;;24.35;11.90;;;;;;;15.60;77.25;95172.31;1694394;83;21067;-58
2021/09/26 07:48:25;;;;;;;23.50;13.00;;;;;;;15.72;76.54;95170.71;1698807;84;21041;-59
2021/09/26 07:50:51;;;;;;;22.13;12.18;;;;;;;15.86;76.14;95176.97;1690744;83;21509;-58
2021/09/26 07:53:19;;;;;;;22.55;12.10;;;;;;;16.00;75.70;95180.44;1694224;83;21148;-58
2021/09/26 07:55:50;;;;;;;13.00;11.08;;;;;;;16.11;75.62;95167.42;1685353;83;20981;-59
2021/09/26 07:58:17;;;;;;;17.67;11.38;;;;;;;16.23;75.50;95175.52;1689510;83;21020;-58
2021/09/26 08:00:44;;;;;;;12.68;9.68;;;;;;;16.29;75.17;95173.61;1683450;84;21095;-58
2021/09/26 08:03:12;;;;;;;11.05;8.20;;;;;;;16.33;74.78;95171.45;1690579;84;21426;-58
2021/09/26 08:05:39;;;;;;;13.88;10.03;;;;;;;16.40;74.21;95169.72;1703952;84;21540;-59
2021/09/26 08:08:06;;;;;;;11.57;8.53;;;;;;;16.48;73.61;95169.48;1698733;83;21087;-58
2021/09/26 08:10:33;;;;;;;19.05;11.30;;;;;;;16.59;73.58;95166.33;1691563;83;20989;-58
2021/09/26 08:13:01;;;;;;;18.05;9.83;;;;;;;16.73;73.26;95162.05;1688861;83;20980;-57
2021/09/26 08:15:27;;;;;;;15.05;9.93;;;;;;;16.88;72.49;95171.17;1690020;83;21016;-59
2021/09/26 08:17:54;;;;;;;13.65;9.45;;;;;;;17.03;72.14;95163.59;1695368;83;21155;-56
2021/09/26 08:20:21;;;;;;;13.62;9.13;;;;;;;17.17;71.88;95165.62;1700205;83;21143;-57
2021/09/26 08:22:52;;;;;;;15.32;9.33;;;;;;;17.32;71.45;95167.78;1693353;83;20981;-58
2021/09/26 08:25:18;;;;;;;15.83;8.93;;;;;;;17.43;70.42;95169.40;1700569;83;21013;-59
2021/09/26 08:27:44;;;;;;;16.45;9.10;;;;;;;17.54;70.16;95166.17;1695778;83;21068;-59
2021/09/26 08:30:12;;;;;;;23.42;15.72;;;;;;;17.68;70.30;95166.75;1697538;83;21134;-58
2021/09/26 08:32:40;;;;;;;16.05;12.23;;;;;;;17.81;70.04;95162.28;1705824;82;20968;-57
2021/09/26 08:35:08;;;;;;;16.17;10.78;;;;;;;17.89;69.34;95160.62;1696884;83;21020;-59
2021/09/26 08:37:38;;;;;;;14.13;9.90;;;;;;;17.95;69.04;95165.02;1690804;83;21151;-57
2021/09/26 08:40:07;;;;;;;14.80;9.35;;;;;;;18.04;68.70;95161.34;1700293;84;21016;-57
2021/09/26 08:42:37;;;;;;;17.05;10.08;;;;;;;18.18;68.45;95171.81;1695556;83;21496;-59
2021/09/26 08:45:07;;;;;;;14.03;9.33;;;;;;;18.31;68.12;95169.47;1686187;83;21044;-58
2021/09/26 08:47:39;;;;;;;17.32;10.18;;;;;;;18.47;67.52;95163.98;1691728;83;21547;-59
2021/09/26 08:50:05;;;;;;;14.15;9.33;;;;;;;18.60;67.47;95170.73;1700686;83;20993;-58
2021/09/26 08:52:33;;;;;;;19.32;10.28;;;;;;;18.77;67.40;95161.94;1682690;84;21008;-57
2021/09/26 08:55:00;;;;;;;11.65;8.53;;;;;;;18.89;66.60;95166.39;1691791;83;21127;-59
2021/09/26 08:57:27;;;;;;;11.88;7.97;;;;;;;18.97;65.72;95167.48;1685674;83;20977;-57
2021/09/26 08:59:54;;;;;;;12.82;9.00;;;;;;;18.99;65.12;95160.78;1690870;83;22081;-57
2021/09/26 09:02:21;;;;;;;10.35;6.90;;;;;;;19.03;65.34;95164.75;1687174;83;21091;-58
2021/09/26 09:04:48;;;;;;;10.00;7.15;;;;;;;19.06;64.81;95152.00;1694789;83;20992;-58
2021/09/26 09:07:15;;;;;;;11.33;8.68;;;;;;;19.10;64.96;95159.52;1688854;83;21137;-58
2021/09/26 09:09:54;;;;;;;11.15;7.62;;;;;;;19.16;64.54;95151.98;1700726;83;21088;-57
2021/09/26 09:12:28;;;;;;;9.88;7.65;;;;;;;19.21;64.32;95152.66;1695306;83;21020;-58
2021/09/26 09:15:02;;;;;;;10.18;7.53;;;;;;;19.14;64.68;95151.69;1686550;83;21052;-59
2021/09/26 09:17:33;;;;;;;16.97;9.53;;;;;;;19.07;64.75;95161.11;1683030;83;21104;-58
2021/09/26 09:20:17;;;;;;;11.53;8.48;;;;;;;19.00;65.22;95159.52;1696696;83;21762;-58
2021/09/26 09:22:51;;;;;;;17.67;7.90;;;;;;;19.02;64.81;95154.22;1689945;83;20960;-57
2021/09/26 09:25:43;;;;;;;11.38;7.45;;;;;;;19.05;64.04;95150.44;1699213;84;21472;-59
2021/09/26 09:28:14;;;;;;;12.65;7.58;;;;;;;19.10;64.43;95151.76;1691522;83;21468;-58
2021/09/26 09:30:48;;;;;;;12.55;8.03;;;;;;;19.13;64.23;95151.55;1696277;83;20970;-59
2021/09/26 09:33:15;;;;;;;10.60;8.00;;;;;;;19.17;64.40;95149.33;1701978;84;21786;-58
2021/09/26 09:35:50;;;;;;;12.93;7.70;;;;;;;19.19;64.54;95156.57;1701633;83;21005;-58
2021/09/26 09:38:34;;;;;;;13.25;8.15;;;;;;;19.18;64.30;95154.30;1697785;84;21545;-57
2021/09/26 09:41:02;;;;;;;8.98;7.47;;;;;;;19.14;64.24;95158.66;1697337;83;21059;-58
2021/09/26 09:43:29;;;;;;;10.03;7.28;;;;;;;19.15;64.40;95157.40;1705840;83;20972;-57
2021/09/26 09:46:01;;;;;;;10.58;6.85;;;;;;;19.20;64.19;95160.89;1693878;83;21127;-59
2021/09/26 09:48:30;;;;;;;10.23;7.40;;;;;;;19.24;64.15;95150.30;1683215;82;20980;-58
2021/09/26 09:51:04;;;;;;;12.88;8.08;;;;;;;19.20;63.77;95153.17;1692035;84;21591;-58
2021/09/26 09:53:43;;;;;;;12.20;8.83;;;;;;;19.15;64.02;95149.03;1694120;83;21261;-58
2021/09/26 09:56:21;;;;;;;10.32;7.45;;;;;;;19.15;63.86;95146.23;1690872;83;21600;-58
2021/09/26 09:58:54;;;;;;;11.12;8.10;;;;;;;19.19;64.30;95144.02;1694183;83;22022;-58
2021/09/26 10:01:33;;;;;;;9.63;7.10;;;;;;;19.26;64.34;95144.21;1690992;84;21131;-58
2021/09/26 10:04:03;;;;;;;8.68;7.37;;;;;;;19.33;64.41;95143.14;1675211;82;21021;-58
2021/09/26 10:06:44;;;;;;;11.50;7.65;;;;;;;19.42;64.43;95142.98;1702725;83;21060;-58
2021/09/26 10:09:27;;;;;;;13.45;7.35;;;;;;;19.56;64.06;95138.52;1701674;83;21087;-58
2021/09/26 10:12:01;;;;;;;;;;;;;;;19.76;63.57;95143.35;1701869;83;21360;-60
2021/09/26 10:14:31;;;;;;;7.03;6.15;;;;;;;19.94;63.00;95145.02;1691397;83;20141;-58
2021/09/26 10:17:01;;;;;;;10.72;6.92;;;;;;;20.08;62.53;95143.47;1704570;83;21055;-59
2021/09/26 10:19:30;;;;;;;9.95;7.75;;;;;;;20.18;62.31;95150.41;1684832;83;21581;-59
2021/09/26 10:21:59;;;;;;;15.60;7.17;;;;;;;20.28;62.11;95141.94;1687411;83;21027;-58
2021/09/26 10:24:30;;;;;;;15.13;7.17;;;;;;;20.37;61.85;95141.09;1672218;83;21250;-59
2021/09/26 10:27:01;;;;;;;9.33;7.15;;;;;;;20.46;61.25;95147.11;1696802;83;21153;-60
2021/09/26 10:29:31;;;;;;;19.37;11.35;;;;;;;20.48;60.61;95140.38;1700062;83;21515;-59
2021/09/26 10:31:59;;;;;;;17.00;10.80;;;;;;;20.49;60.50;95141.91;1700876;83;21310;-58
2021/09/26 10:34:26;;;;;;;13.62;8.93;;;;;;;20.53;60.49;95142.45;1665609;83;21107;-58
2021/09/26 10:36:53;;;;;;;11.43;7.20;;;;;;;20.58;60.29;95136.86;1695768;83;21124;-59
2021/09/26 10:39:20;;;;;;;17.40;10.45;;;;;;;20.65;59.83;95134.22;1692026;83;20964;-58
2021/09/26 10:42:08;;;;;;;26.07;15.40;;;;;;;20.67;58.78;95134.48;1671695;83;20985;-58
2021/09/26 10:44:45;;;;;;;16.97;13.55;;;;;;;20.66;59.37;95134.34;1675865;83;21103;-59
2021/09/26 10:47:19;;;;;;;14.60;9.38;;;;;;;20.68;59.51;95127.00;1687113;83;21456;-58
2021/09/26 10:49:54;;;;;;;14.65;10.03;;;;;;;20.75;58.38;95127.90;1689028;83;21147;-57
2021/09/26 10:52:36;;;;;;;14.15;8.95;;;;;;;20.82;58.19;95125.25;1676344;83;21025;-59
2021/09/26 10:55:29;;;;;;;21.05;7.20;;;;;;;20.87;57.51;95121.11;1693176;83;20981;-58
2021/09/26 10:58:12;;;;;;;17.73;6.50;;;;;;;20.96;56.70;95120.11;1681380;83;21191;-56
2021/09/26 11:00:53;;;;;;;7.80;5.33;;;;;;;20.98;55.38;95117.57;1707822;83;20996;-57
2021/09/26 11:03:39;;;;;;;13.30;5.95;;;;;;;20.97;55.10;95115.42;1689981;83;21192;-58
2021/09/26 11:06:21;;;;;;;11.93;4.65;;;;;;;21.07;54.79;95115.30;1694067;84;21000;-59
2021/09/26 11:08:57;;;;;;;14.03;5.40;;;;;;;21.16;54.16;95114.30;1696500;83;21076;-58
2021/09/26 11:11:34;;;;;;;11.55;5.08;;;;;;;21.21;53.89;95103.73;1696212;83;21199;-58
2021/09/26 11:14:01;;;;;;;9.73;5.47;;;;;;;21.24;53.37;95106.30;1683840;83;21076;-57
2021/09/26 11:16:47;;;;;;;12.80;6.47;;;;;;;21.28;53.43;95104.65;1703888;83;21142;-57
2021/09/26 11:19:14;;;;;;;6.85;5.70;;;;;;;21.28;53.60;95106.80;1686725;83;21186;-58
2021/09/26 11:21:46;;;;;;;12.45;6.10;;;;;;;21.24;53.63;95098.52;1691342;83;21036;-59
2021/09/26 11:24:31;;;;;;;14.75;6.53;;;;;;;21.21;53.39;95100.94;1684991;83;21563;-59
2021/09/26 11:27:16;;;;;;;8.98;5.20;;;;;;;21.18;53.40;95092.16;1683680;83;21554;-58
2021/09/26 11:29:48;;;;;;;11.75;5.80;;;;;;;21.15;53.50;95098.78;1665004;84;21233;-59
2021/09/26 11:32:31;;;;;;;13.83;9.18;;;;;;;21.12;53.55;95091.40;1710841;83;20959;-59